createdAt,value
2023-05-23T00:04:03.137Z,66.87
2023-05-23T00:08:08.451Z,67.91
2023-05-23T00:12:12.485Z,68.05
2023-05-23T00:16:16.982Z,68.52
2023-05-23T00:20:21.291Z,69.53
2023-05-23T00:24:26.287Z,69.36
2023-05-23T00:28:29.224Z,68.75
2023-05-23T00:32:32.631Z,68.57
2023-05-23T00:36:38.353Z,68.16
2023-05-23T00:40:43.097Z,69.24
2023-05-23T00:44:48.639Z,69.86
2023-05-23T00:48:52.120Z,69.69
2023-05-23T00:52:55.193Z,69.43
2023-05-23T00:56:59.991Z,68.68
2023-05-23T01:01:03.391Z,68.17
2023-05-23T01:05:08.135Z,68.15
2023-05-23T01:09:11.141Z,68.87
2023-05-23T01:13:25.232Z,67.99
2023-05-23T01:17:36.672Z,68.49
2023-05-23T01:21:42.243Z,68.06
2023-05-23T01:26:05.389Z,66.44
2023-05-23T01:30:13.032Z,64.60
2023-05-23T01:34:20.361Z,67.02
2023-05-23T01:38:24.945Z,67.45
2023-05-23T01:42:28.943Z,67.74
2023-05-23T01:46:35.811Z,67.82
2023-05-23T01:50:39.195Z,68.13
2023-05-23T01:54:44.624Z,67.77
2023-05-23T01:58:48.169Z,67.78
2023-05-23T02:02:53.064Z,67.97
2023-05-23T02:06:56.162Z,68.25
2023-05-23T02:10:59.595Z,68.06
2023-05-23T02:15:02.996Z,67.77
2023-05-23T02:19:08.168Z,67.94
2023-05-23T02:23:11.562Z,68.28
2023-05-23T02:27:15.289Z,68.46
2023-05-23T02:31:18.476Z,68.06
2023-05-23T02:35:23.976Z,68.15
2023-05-23T02:39:26.973Z,68.15
2023-05-23T02:43:30.368Z,68.32
2023-05-23T02:47:33.731Z,67.91
2023-05-23T02:51:38.981Z,67.37
2023-05-23T02:55:43.224Z,67.58
2023-05-23T02:59:46.842Z,67.41
2023-05-23T03:03:50.149Z,67.49
2023-05-23T03:07:55.381Z,67.73
2023-05-23T03:11:58.466Z,67.96
2023-05-23T03:16:02.204Z,68.06
2023-05-23T03:20:10.067Z,68.44
2023-05-23T03:24:14.913Z,68.40
2023-05-23T03:28:18.013Z,68.71
2023-05-23T03:32:21.287Z,68.93
2023-05-23T03:36:26.507Z,68.61
2023-05-23T03:40:31.049Z,68.63
2023-05-23T03:44:34.274Z,68.71
2023-05-23T03:48:37.877Z,68.11
2023-05-23T03:52:41.088Z,68.04
2023-05-23T03:56:46.196Z,68.30
2023-05-23T04:00:49.833Z,68.06
2023-05-23T04:04:54.285Z,67.67
2023-05-23T04:08:57.746Z,67.75
2023-05-23T04:13:02.777Z,67.55
2023-05-23T04:17:06.377Z,67.31
2023-05-23T04:21:09.349Z,67.58
2023-05-23T04:25:12.761Z,67.53
2023-05-23T04:29:18.007Z,66.80
2023-05-23T04:33:21.859Z,66.27
2023-05-23T04:37:26.556Z,66.64
2023-05-23T04:41:29.928Z,66.69
2023-05-23T04:45:34.913Z,65.91
2023-05-23T04:49:39.934Z,66.45
2023-05-23T04:53:44.119Z,67.39
2023-05-23T04:57:47.317Z,65.39
2023-05-23T05:01:51.884Z,65.91
2023-05-23T05:05:57.684Z,65.32
2023-05-23T05:10:01.372Z,63.15
2023-05-23T05:14:06.132Z,62.82
2023-05-23T05:18:12.279Z,62.20
2023-05-23T05:22:15.967Z,62.59
2023-05-23T05:26:20.228Z,62.80
2023-05-23T05:30:24.890Z,62.47
2023-05-23T05:34:30.067Z,62.70
2023-05-23T05:38:33.378Z,62.60
2023-05-23T05:42:36.441Z,62.59
2023-05-23T05:46:39.678Z,62.34
2023-05-23T05:50:45.740Z,61.33
2023-05-23T05:54:50.171Z,59.65
2023-05-23T05:58:54.553Z,59.50
2023-05-23T06:02:58.017Z,59.09
2023-05-23T06:07:02.788Z,58.31
2023-05-23T06:11:06.551Z,57.34
2023-05-23T06:15:10.783Z,57.43
2023-05-23T06:19:14.183Z,56.47
2023-05-23T06:23:18.809Z,56.51
2023-05-23T06:27:22.203Z,54.93
2023-05-23T06:31:25.507Z,55.45
2023-05-23T06:35:28.993Z,56.22
2023-05-23T06:39:33.598Z,56.59
2023-05-23T06:43:37.285Z,54.99
2023-05-23T06:47:44.440Z,55.20
2023-05-23T06:51:47.743Z,55.07
2023-05-23T06:55:52.312Z,54.22
2023-05-23T06:59:55.787Z,54.51
2023-05-23T07:03:59.219Z,53.06
2023-05-23T07:08:02.858Z,52.55
2023-05-23T07:12:08.287Z,51.03
2023-05-23T07:16:11.442Z,50.52
2023-05-23T07:20:14.810Z,48.59
2023-05-23T07:24:18.273Z,50.42
2023-05-23T07:28:23.262Z,50.47
2023-05-23T07:32:26.568Z,48.81
2023-05-23T07:36:35.060Z,48.46
2023-05-23T07:40:40.890Z,48.75
2023-05-23T07:44:46.091Z,47.95
2023-05-23T07:48:49.154Z,48.41
2023-05-23T07:52:52.779Z,50.13
2023-05-23T07:56:56.277Z,51.74
2023-05-23T08:01:01.309Z,53.66
2023-05-23T08:05:04.989Z,54.57
2023-05-23T08:09:08.131Z,56.08
2023-05-23T08:13:11.955Z,57.02
2023-05-23T08:17:16.983Z,59.77
2023-05-23T08:21:20.778Z,59.76
2023-05-23T08:25:24.868Z,61.35
2023-05-23T08:29:28.611Z,61.70
2023-05-23T08:33:33.197Z,62.65
2023-05-23T08:37:36.810Z,63.41
2023-05-23T08:41:41.127Z,60.54
2023-05-23T08:45:45.197Z,61.70
2023-05-23T08:49:50.910Z,59.27
2023-05-23T08:53:56.789Z,55.87
2023-05-23T08:58:00.824Z,54.84
2023-05-23T09:02:10.224Z,54.71
2023-05-23T09:06:15.098Z,52.97
2023-05-23T09:10:20.753Z,52.44
2023-05-23T09:14:23.761Z,50.62
2023-05-23T09:18:28.476Z,50.06
2023-05-23T09:22:33.062Z,47.81
2023-05-23T09:26:37.106Z,45.58
2023-05-23T09:30:41.773Z,46.21
2023-05-23T09:34:57.790Z,46.99
2023-05-23T09:39:05.490Z,45.95
2023-05-23T09:43:09.648Z,43.90
2023-05-23T09:47:13.124Z,44.45
2023-05-23T09:51:20.205Z,42.83
2023-05-23T09:55:25.001Z,44.08
2023-05-23T09:59:31.062Z,42.85
2023-05-23T10:03:38.875Z,42.49
2023-05-23T10:07:44.234Z,42.64
2023-05-23T10:12:38.373Z,42.17
2023-05-23T10:16:51.742Z,43.57
2023-05-23T10:20:59.255Z,40.98
2023-05-23T10:25:02.962Z,40.76
2023-05-23T10:29:09.144Z,42.13
2023-05-23T10:33:17.542Z,40.94
2023-05-23T10:37:29.069Z,42.90
2023-05-23T10:41:40.244Z,41.22
2023-05-23T10:45:45.860Z,41.63
2023-05-23T10:49:54.783Z,41.74
2023-05-23T10:53:57.997Z,42.30
2023-05-23T10:58:17.467Z,43.19
2023-05-23T11:02:28.570Z,42.09
2023-05-23T11:06:34.373Z,40.79
2023-05-23T11:10:57.682Z,41.45
2023-05-23T11:15:00.924Z,40.20
2023-05-23T11:19:26.496Z,41.85
2023-05-23T11:23:42.265Z,42.12
2023-05-23T11:27:48.498Z,41.61
2023-05-23T11:31:51.868Z,41.87
2023-05-23T11:35:57.252Z,39.33
2023-05-23T11:40:02.453Z,39.51
2023-05-23T11:44:12.948Z,40.18
2023-05-23T11:48:18.121Z,40.27
2023-05-23T11:52:23.112Z,39.34
2023-05-23T11:56:26.787Z,39.52
2023-05-23T12:00:31.782Z,38.60
2023-05-23T12:04:36.766Z,38.51
2023-05-23T12:08:41.662Z,37.80
2023-05-23T12:12:46.205Z,39.36
2023-05-23T12:16:49.853Z,39.16
2023-05-23T12:20:53.652Z,39.70
2023-05-23T12:24:58.828Z,39.24
2023-05-23T12:29:04.156Z,37.75
2023-05-23T12:33:10.646Z,38.08
2023-05-23T12:37:19.844Z,43.38
2023-05-23T12:41:25.296Z,46.54
2023-05-23T12:45:33.983Z,48.07
2023-05-23T12:49:42.740Z,52.72
2023-05-23T12:53:47.012Z,57.03
2023-05-23T12:57:52.232Z,60.87
2023-05-23T13:01:56.977Z,61.49
2023-05-23T13:06:00.727Z,61.55
2023-05-23T13:10:05.384Z,61.58
2023-05-23T13:14:10.441Z,64.12
2023-05-23T13:18:14.943Z,65.74
2023-05-23T13:22:18.458Z,65.85
2023-05-23T13:26:22.056Z,65.29
2023-05-23T13:30:28.797Z,65.34
2023-05-23T13:34:32.366Z,66.70
2023-05-23T13:38:35.857Z,65.43
2023-05-23T13:42:39.296Z,64.43
2023-05-23T13:46:44.584Z,65.08
2023-05-23T13:50:48.323Z,65.35
2023-05-23T13:54:52.433Z,65.09
2023-05-23T13:58:58.060Z,65.67
2023-05-23T14:03:03.272Z,64.98
2023-05-23T14:07:06.998Z,66.85
2023-05-23T14:11:12.126Z,67.71
2023-05-23T14:15:15.357Z,67.72
2023-05-23T14:19:20.650Z,67.82
2023-05-23T14:23:24.131Z,69.75
2023-05-23T14:27:28.705Z,67.47
2023-05-23T14:31:32.022Z,69.02
2023-05-23T14:35:37.037Z,67.98
2023-05-23T14:39:41.439Z,67.28
2023-05-23T14:43:45.817Z,67.02
2023-05-23T14:47:48.947Z,65.10
2023-05-23T14:51:53.962Z,66.91
2023-05-23T14:55:57.778Z,64.75
2023-05-23T15:00:03.215Z,67.74
2023-05-23T15:04:09.843Z,66.83
2023-05-23T15:08:16.912Z,65.48
2023-05-23T15:12:21.052Z,66.33
2023-05-23T15:16:24.361Z,66.86
2023-05-23T15:20:27.340Z,65.36
2023-05-23T15:24:33.719Z,64.91
2023-05-23T15:28:37.908Z,64.54
2023-05-23T15:32:41.654Z,64.85
2023-05-23T15:36:44.654Z,65.02
2023-05-23T15:40:49.392Z,66.00
2023-05-23T15:44:53.922Z,67.15
2023-05-23T15:49:07.188Z,67.03
2023-05-23T15:53:13.543Z,66.78
2023-05-23T15:57:18.334Z,67.26
2023-05-23T16:01:21.509Z,68.13
2023-05-23T16:05:25.030Z,66.85
2023-05-23T16:09:28.358Z,64.70
2023-05-23T16:13:33.104Z,62.96
2023-05-23T16:17:36.385Z,63.39
2023-05-23T16:21:39.760Z,62.29
2023-05-23T16:25:43.477Z,63.32
2023-05-23T16:29:48.216Z,63.23
2023-05-23T16:33:51.966Z,63.81
2023-05-23T16:37:55.271Z,64.89
2023-05-23T16:42:00.547Z,64.63
2023-05-23T16:46:06.161Z,63.67
2023-05-23T16:50:10.251Z,63.50
2023-05-23T16:54:13.759Z,65.14
2023-05-23T16:58:19.391Z,65.38
2023-05-23T17:02:26.273Z,65.66
2023-05-23T17:06:29.884Z,64.61
2023-05-23T17:10:34.021Z,64.63
2023-05-23T17:14:38.621Z,63.78
2023-05-23T17:18:43.504Z,62.62
2023-05-23T17:22:46.900Z,62.54
2023-05-23T17:26:50.033Z,62.77
2023-05-23T17:30:53.686Z,63.12
2023-05-23T17:34:58.425Z,63.19
2023-05-23T17:39:01.450Z,63.83
2023-05-23T17:43:05.873Z,65.04
2023-05-23T17:47:08.983Z,65.00
2023-05-23T17:51:14.177Z,65.78
2023-05-23T17:55:17.450Z,66.46
2023-05-23T17:59:23.756Z,66.25
2023-05-23T18:03:27.897Z,66.58
2023-05-23T18:07:33.005Z,67.17
2023-05-23T18:11:36.333Z,67.03
2023-05-23T18:15:39.666Z,68.04
2023-05-23T18:19:43.077Z,68.70
2023-05-23T18:23:49.144Z,68.12
2023-05-23T18:27:53.128Z,68.05
2023-05-23T18:31:56.565Z,67.49
2023-05-23T18:35:59.795Z,67.49
2023-05-23T18:40:04.747Z,67.71
2023-05-23T18:44:07.971Z,67.81
2023-05-23T18:48:11.707Z,67.94
2023-05-23T18:52:14.963Z,67.80
2023-05-23T18:56:19.916Z,67.55
2023-05-23T19:00:33.131Z,67.79
2023-05-23T19:04:39.016Z,67.70
2023-05-23T19:08:48.674Z,68.24
2023-05-23T19:13:02.350Z,68.27
2023-05-23T19:17:06.915Z,68.57
2023-05-23T19:21:10.808Z,68.92
2023-05-23T19:25:18.044Z,69.25
2023-05-23T19:29:24.009Z,69.58
2023-05-23T19:33:28.192Z,69.71
2023-05-23T19:37:39.665Z,70.29
2023-05-23T19:41:43.375Z,70.82
2023-05-23T19:45:53.133Z,71.17
2023-05-23T19:49:56.854Z,71.15
2023-05-23T19:54:00.689Z,70.83
2023-05-23T19:58:06.314Z,71.17
2023-05-23T20:02:18.783Z,70.95
2023-05-23T20:06:22.445Z,71.01
2023-05-23T20:10:27.676Z,71.07
2023-05-23T20:14:32.712Z,70.97
2023-05-23T20:18:40.247Z,71.20
2023-05-23T20:22:43.906Z,71.40
2023-05-23T20:26:56.007Z,71.17
2023-05-23T20:31:03.068Z,71.11
2023-05-23T20:35:09.962Z,71.23
2023-05-23T20:39:17.051Z,71.34
2023-05-23T20:43:22.533Z,71.22
2023-05-23T20:47:26.355Z,71.01
2023-05-23T20:51:31.011Z,71.08
2023-05-23T20:55:36.010Z,70.97
2023-05-23T20:59:40.125Z,71.00
2023-05-23T21:03:43.440Z,71.17
2023-05-23T21:07:48.500Z,71.04
2023-05-23T21:11:51.443Z,70.48
2023-05-23T21:15:54.804Z,70.86
2023-05-23T21:19:59.231Z,71.11
2023-05-23T21:24:05.267Z,71.04
2023-05-23T21:28:08.220Z,71.04
2023-05-23T21:32:11.882Z,70.74
2023-05-23T21:36:16.929Z,70.70
2023-05-23T21:40:21.678Z,70.66
2023-05-23T21:44:25.013Z,70.72
2023-05-23T21:48:28.266Z,70.76
2023-05-23T21:52:33.698Z,70.70
2023-05-23T21:56:38.475Z,70.46
2023-05-23T22:00:43.623Z,70.29
2023-05-23T22:09:11.706Z,70.46
2023-05-23T22:13:18.193Z,69.97
2023-05-23T22:17:22.984Z,69.99
2023-05-23T22:21:26.971Z,70.20
2023-05-23T22:25:33.033Z,69.75
2023-05-23T22:29:40.160Z,70.15
2023-05-23T22:33:43.446Z,70.06
2023-05-23T22:37:47.475Z,70.22
2023-05-23T22:41:51.162Z,70.40
2023-05-23T22:45:55.759Z,69.68
2023-05-23T22:50:00.036Z,70.14
2023-05-23T22:54:03.434Z,69.74
2023-05-23T22:58:08.204Z,69.83
2023-05-23T23:02:13.183Z,69.50
2023-05-23T23:06:17.024Z,69.75
2023-05-23T23:10:20.580Z,69.66
2023-05-23T23:14:25.774Z,69.45
2023-05-23T23:18:30.804Z,69.30
2023-05-23T23:22:34.664Z,69.08
2023-05-23T23:26:38.026Z,69.46
2023-05-23T23:30:43.920Z,69.53
2023-05-23T23:34:48.838Z,69.53
2023-05-23T23:38:52.659Z,69.32
2023-05-23T23:42:56.027Z,69.04
2023-05-23T23:46:59.252Z,69.00
2023-05-23T23:51:04.025Z,68.86
2023-05-23T23:55:08.122Z,69.97
2023-05-23T23:59:11.956Z,69.32
